createdAt,value
2023-05-08T00:00:09.238Z,98660.22
2023-05-08T00:01:12.031Z,98666.13
2023-05-08T00:02:13.733Z,98673.34
2023-05-08T00:03:15.579Z,98664.06
2023-05-08T00:04:20.519Z,98660.72
2023-05-08T00:05:22.393Z,98668.06
2023-05-08T00:06:23.985Z,98674.75
2023-05-08T00:07:25.570Z,98650.91
2023-05-08T00:08:27.189Z,98668.66
2023-05-08T00:09:28.890Z,98671.88
2023-05-08T00:10:30.662Z,98665.81
2023-05-08T00:11:32.253Z,98667.47
2023-05-08T00:12:34.008Z,98667.84
2023-05-08T00:13:35.724Z,98668.22
2023-05-08T00:14:38.024Z,98678.47
2023-05-08T00:15:40.075Z,98676.34
2023-05-08T00:16:41.881Z,98670.97
2023-05-08T00:17:43.557Z,98673.13
2023-05-08T00:18:45.781Z,98673.75
2023-05-08T00:19:47.375Z,98661.75
2023-05-08T00:20:49.526Z,98669.94
2023-05-08T00:21:51.153Z,98667.56
2023-05-08T00:22:52.829Z,98666.38
2023-05-08T00:23:54.516Z,98667.22
2023-05-08T00:24:56.567Z,98675.34
2023-05-08T00:25:58.201Z,98674.44
2023-05-08T00:26:59.800Z,98659.81
2023-05-08T00:28:01.664Z,98673.69
2023-05-08T00:29:05.020Z,98675.13
2023-05-08T00:30:08.156Z,98663.25
2023-05-08T00:31:09.741Z,98670.28
2023-05-08T00:32:11.529Z,98657.75
2023-05-08T00:33:13.202Z,98677.94
2023-05-08T00:34:14.744Z,98676.91
2023-05-08T00:35:16.832Z,98676.03
2023-05-08T00:36:18.628Z,98667.34
2023-05-08T00:37:20.328Z,98671.22
2023-05-08T00:38:22.071Z,98664.22
2023-05-08T00:39:23.657Z,98663.75
2023-05-08T00:40:25.734Z,98669.88
2023-05-08T00:41:27.363Z,98662.25
2023-05-08T00:42:28.978Z,98665.00
2023-05-08T00:43:30.691Z,98668.84
2023-05-08T00:44:32.796Z,98663.06
2023-05-08T00:45:38.301Z,98662.75
2023-05-08T00:46:40.027Z,98656.31
2023-05-08T00:47:42.298Z,98657.81
2023-05-08T00:48:43.984Z,98678.16
2023-05-08T00:49:45.630Z,98664.00
2023-05-08T00:50:47.170Z,98662.59
2023-05-08T00:51:50.207Z,98670.94
2023-05-08T00:52:51.905Z,98660.75
2023-05-08T00:53:53.548Z,98657.69
2023-05-08T00:54:55.094Z,98667.63
2023-05-08T00:55:56.727Z,98659.38
2023-05-08T00:56:58.949Z,98664.94
2023-05-08T00:58:00.554Z,98665.78
2023-05-08T00:59:02.150Z,98647.47
2023-05-08T01:00:04.651Z,98659.53
2023-05-08T01:01:06.358Z,98666.69
2023-05-08T01:02:08.320Z,98659.53
2023-05-08T01:03:09.988Z,98658.19
2023-05-08T01:04:11.573Z,98679.56
2023-05-08T01:05:13.134Z,98674.38
2023-05-08T01:06:14.840Z,98679.00
2023-05-08T01:07:16.374Z,98666.09
2023-05-08T01:08:18.067Z,98668.84
2023-05-08T01:09:19.601Z,98681.16
2023-05-08T01:10:21.210Z,98677.34
2023-05-08T01:11:26.195Z,98680.53
2023-05-08T01:12:50.578Z,98669.34
2023-05-08T01:14:16.821Z,98681.94
2023-05-08T01:15:29.706Z,98680.66
2023-05-08T01:16:52.362Z,98688.28
2023-05-08T01:18:13.522Z,98682.28
2023-05-08T01:19:43.468Z,98691.38
2023-05-08T01:21:08.185Z,98686.47
2023-05-08T01:22:44.244Z,98696.31
2023-05-08T01:24:10.539Z,98696.19
2023-05-08T01:25:37.377Z,98694.59
2023-05-08T01:27:14.979Z,98688.03
2023-05-08T01:28:48.671Z,98694.41
2023-05-08T01:30:05.210Z,98693.81
2023-05-08T01:31:26.349Z,98699.06
2023-05-08T01:32:30.370Z,98691.19
2023-05-08T01:33:51.637Z,98706.22
2023-05-08T01:35:10.765Z,98697.28
2023-05-08T01:36:19.109Z,98692.34
2023-05-08T01:37:27.709Z,98703.94
2023-05-08T01:38:48.048Z,98698.59
2023-05-08T01:39:57.116Z,98701.66
2023-05-08T01:41:12.188Z,98703.88
2023-05-08T01:42:28.906Z,98709.78
2023-05-08T01:43:35.420Z,98690.00
2023-05-08T01:44:41.732Z,98700.94
2023-05-08T01:45:46.394Z,98686.63
2023-05-08T01:46:51.111Z,98698.19
2023-05-08T01:48:00.931Z,98705.84
2023-05-08T01:49:08.503Z,98713.75
2023-05-08T01:50:59.547Z,98711.91
2023-05-08T01:52:03.928Z,98708.06
2023-05-08T01:53:14.295Z,98701.34
2023-05-08T01:54:17.351Z,98711.75
2023-05-08T01:55:24.860Z,98687.28
2023-05-08T01:56:27.132Z,98706.72
2023-05-08T01:57:29.244Z,98705.56
2023-05-08T01:58:30.825Z,98714.31
2023-05-08T01:59:32.892Z,98713.72
2023-05-08T02:00:34.444Z,98704.66
2023-05-08T02:01:36.225Z,98717.88
2023-05-08T02:02:38.315Z,98722.91
2023-05-08T02:03:40.201Z,98718.41
2023-05-08T02:04:41.957Z,98696.34
2023-05-08T02:05:43.669Z,98719.56
2023-05-08T02:06:45.276Z,98713.38
2023-05-08T02:07:46.954Z,98722.06
2023-05-08T02:08:49.015Z,98720.38
2023-05-08T02:09:51.179Z,98725.03
2023-05-08T02:10:53.286Z,98723.91
2023-05-08T02:11:55.361Z,98715.56
2023-05-08T02:12:57.151Z,98727.16
2023-05-08T02:13:58.964Z,98706.31
2023-05-08T02:15:00.944Z,98711.94
2023-05-08T02:16:03.114Z,98718.53
2023-05-08T02:17:05.383Z,98726.56
2023-05-08T02:18:08.052Z,98722.34
2023-05-08T02:19:09.709Z,98716.66
2023-05-08T02:20:14.993Z,98715.03
2023-05-08T02:21:16.843Z,98707.56
2023-05-08T02:22:18.960Z,98723.56
2023-05-08T02:23:21.499Z,98719.75
2023-05-08T02:24:23.126Z,98712.03
2023-05-08T02:25:24.718Z,98720.75
2023-05-08T02:26:26.352Z,98719.50
2023-05-08T02:27:28.280Z,98721.78
2023-05-08T02:28:30.508Z,98713.47
2023-05-08T02:29:32.087Z,98722.81
2023-05-08T02:30:33.687Z,98711.09
2023-05-08T02:31:35.862Z,98713.97
2023-05-08T02:32:37.376Z,98715.75
2023-05-08T02:33:40.258Z,98722.91
2023-05-08T02:34:48.183Z,98732.88
2023-05-08T02:36:02.426Z,98734.97
2023-05-08T02:37:04.035Z,98733.16
2023-05-08T02:38:10.658Z,98744.50
2023-05-08T02:39:12.478Z,98740.31
2023-05-08T02:40:15.963Z,98743.03
2023-05-08T02:41:18.354Z,98728.34
2023-05-08T02:42:19.864Z,98725.13
2023-05-08T02:43:21.558Z,98736.53
2023-05-08T02:44:23.110Z,98726.19
2023-05-08T02:45:27.273Z,98724.16
2023-05-08T02:46:57.020Z,98722.94
2023-05-08T02:48:08.918Z,98738.47
2023-05-08T02:49:18.952Z,98740.16
2023-05-08T02:50:25.409Z,98734.44
2023-05-08T02:51:57.096Z,98737.44
2023-05-08T02:53:05.033Z,98734.59
2023-05-08T02:54:10.803Z,98730.63
2023-05-08T02:55:30.895Z,98745.44
2023-05-08T02:56:40.638Z,98744.34
2023-05-08T02:57:42.022Z,98738.41
2023-05-08T02:58:46.455Z,98740.56
2023-05-08T03:00:04.142Z,98729.44
2023-05-08T03:01:25.082Z,98732.50
2023-05-08T03:02:35.745Z,98741.59
2023-05-08T03:03:47.854Z,98740.94
2023-05-08T03:04:51.892Z,98745.38
2023-05-08T03:05:57.491Z,98742.78
2023-05-08T03:06:59.091Z,98734.75
2023-05-08T03:08:03.412Z,98745.41
2023-05-08T03:09:05.832Z,98734.63
2023-05-08T03:10:10.547Z,98735.50
2023-05-08T03:11:14.961Z,98745.66
2023-05-08T03:12:18.414Z,98745.41
2023-05-08T03:13:20.249Z,98741.56
2023-05-08T03:14:22.927Z,98750.59
2023-05-08T03:15:26.014Z,98747.09
2023-05-08T03:16:28.259Z,98737.28
2023-05-08T03:17:31.883Z,98731.00
2023-05-08T03:18:36.321Z,98747.63
2023-05-08T03:19:38.224Z,98743.91
2023-05-08T03:20:41.779Z,98739.69
2023-05-08T03:21:43.348Z,98742.59
2023-05-08T03:22:44.897Z,98735.63
2023-05-08T03:23:50.269Z,98743.19
2023-05-08T03:24:52.500Z,98742.03
2023-05-08T03:25:54.044Z,98743.88
2023-05-08T03:26:56.363Z,98739.97
2023-05-08T03:27:57.959Z,98744.34
2023-05-08T03:28:59.933Z,98741.28
2023-05-08T03:30:01.968Z,98733.88
2023-05-08T03:31:03.743Z,98739.13
2023-05-08T03:32:05.897Z,98745.06
2023-05-08T03:33:08.081Z,98734.16
2023-05-08T03:34:09.709Z,98745.13
2023-05-08T03:35:11.288Z,98749.03
2023-05-08T03:36:14.062Z,98749.53
2023-05-08T03:37:15.666Z,98741.72
2023-05-08T03:38:17.308Z,98734.72
2023-05-08T03:39:18.879Z,98747.78
2023-05-08T03:40:20.643Z,98754.44
2023-05-08T03:41:22.945Z,98746.91
2023-05-08T03:42:24.664Z,98733.56
2023-05-08T03:43:26.206Z,98749.59
2023-05-08T03:44:28.774Z,98739.53
2023-05-08T03:45:31.464Z,98752.22
2023-05-08T03:46:33.099Z,98751.38
2023-05-08T03:47:36.306Z,98746.16
2023-05-08T03:48:37.850Z,98743.75
2023-05-08T03:49:39.443Z,98737.22
2023-05-08T03:50:41.365Z,98724.81
2023-05-08T03:51:42.936Z,98748.41
2023-05-08T03:52:44.584Z,98742.84
2023-05-08T03:53:46.232Z,98748.41
2023-05-08T03:54:47.842Z,98742.47
2023-05-08T03:55:49.443Z,98752.38
2023-05-08T03:56:52.561Z,98740.66
2023-05-08T03:58:16.198Z,98736.28
2023-05-08T03:59:24.928Z,98744.00
2023-05-08T04:00:36.610Z,98734.41
2023-05-08T04:01:42.004Z,98745.31
2023-05-08T04:02:47.309Z,98741.28
2023-05-08T04:04:00.221Z,98748.94
2023-05-08T04:05:05.873Z,98747.91
2023-05-08T04:06:11.248Z,98751.50
2023-05-08T04:07:20.268Z,98753.00
2023-05-08T04:08:23.272Z,98745.03
2023-05-08T04:09:46.737Z,98733.56
2023-05-08T04:10:51.275Z,98735.50
2023-05-08T04:12:04.576Z,98751.97
2023-05-08T04:13:12.700Z,98726.72
2023-05-08T04:14:16.918Z,98747.78
2023-05-08T04:15:20.707Z,98739.63
2023-05-08T04:16:25.378Z,98749.91
2023-05-08T04:17:41.880Z,98752.38
2023-05-08T04:18:46.072Z,98740.97
2023-05-08T04:19:47.669Z,98752.34
2023-05-08T04:20:49.446Z,98755.78
2023-05-08T04:21:51.375Z,98749.13
2023-05-08T04:22:53.823Z,98753.13
2023-05-08T04:23:56.617Z,98743.91
2023-05-08T04:24:58.855Z,98747.53
2023-05-08T04:26:00.585Z,98755.25
2023-05-08T04:27:02.850Z,98754.94
2023-05-08T04:28:04.918Z,98763.00
2023-05-08T04:29:06.776Z,98754.56
2023-05-08T04:30:08.829Z,98746.34
2023-05-08T04:31:10.473Z,98756.88
2023-05-08T04:32:12.096Z,98767.09
2023-05-08T04:33:14.448Z,98767.44
2023-05-08T04:34:16.233Z,98773.00
2023-05-08T04:35:18.008Z,98761.53
2023-05-08T04:36:19.590Z,98765.97
2023-05-08T04:37:28.336Z,98768.63
2023-05-08T04:38:30.373Z,98757.16
2023-05-08T04:39:31.904Z,98772.16
2023-05-08T04:40:33.439Z,98782.41
2023-05-08T04:41:35.622Z,98765.88
2023-05-08T04:42:38.752Z,98780.78
2023-05-08T04:43:40.780Z,98781.69
2023-05-08T04:44:42.336Z,98772.94
2023-05-08T04:45:44.003Z,98773.66
2023-05-08T04:46:45.795Z,98769.38
2023-05-08T04:47:47.393Z,98773.91
2023-05-08T04:48:49.041Z,98778.28
2023-05-08T04:49:51.299Z,98773.19
2023-05-08T04:50:53.026Z,98777.56
2023-05-08T04:51:54.937Z,98765.25
2023-05-08T04:52:57.188Z,98776.91
2023-05-08T04:53:58.807Z,98784.72
2023-05-08T04:55:00.337Z,98778.81
2023-05-08T04:56:01.912Z,98769.00
2023-05-08T04:57:03.668Z,98790.22
2023-05-08T04:58:05.227Z,98775.81
2023-05-08T04:59:06.808Z,98787.94
2023-05-08T05:00:08.913Z,98789.38
2023-05-08T05:01:10.546Z,98781.31
2023-05-08T05:02:12.168Z,98788.41
2023-05-08T05:03:13.964Z,98778.97
2023-05-08T05:04:15.647Z,98791.13
2023-05-08T05:05:17.387Z,98795.06
2023-05-08T05:06:18.941Z,98797.72
2023-05-08T05:07:20.565Z,98802.25
2023-05-08T05:08:22.228Z,98794.66
2023-05-08T05:09:25.395Z,98789.09
2023-05-08T05:10:26.937Z,98803.88
2023-05-08T05:11:28.587Z,98803.53
2023-05-08T05:12:30.300Z,98803.97
2023-05-08T05:13:31.875Z,98797.25
2023-05-08T05:14:33.465Z,98795.56
2023-05-08T05:15:35.383Z,98811.41
2023-05-08T05:16:37.056Z,98775.03
2023-05-08T05:17:38.965Z,98798.72
2023-05-08T05:18:40.617Z,98792.59
2023-05-08T05:19:42.180Z,98799.06
2023-05-08T05:20:43.790Z,98788.75
2023-05-08T05:21:45.478Z,98797.00
2023-05-08T05:22:47.049Z,98801.59
2023-05-08T05:23:48.790Z,98796.88
2023-05-08T05:24:50.357Z,98799.53
2023-05-08T05:25:52.130Z,98806.63
2023-05-08T05:26:53.991Z,98800.09
2023-05-08T05:27:55.570Z,98770.72
2023-05-08T05:28:57.469Z,98796.81
2023-05-08T05:29:59.010Z,98786.34
2023-05-08T05:31:00.757Z,98791.16
2023-05-08T05:32:03.277Z,98802.91
2023-05-08T05:33:04.861Z,98808.63
2023-05-08T05:34:07.471Z,98794.16
2023-05-08T05:35:09.618Z,98794.41
2023-05-08T05:36:11.238Z,98797.50
2023-05-08T05:37:12.845Z,98810.38
2023-05-08T05:38:14.631Z,98792.06
2023-05-08T05:39:16.761Z,98798.00
2023-05-08T05:40:18.983Z,98784.28
2023-05-08T05:41:20.553Z,98813.94
2023-05-08T05:42:22.466Z,98781.47
2023-05-08T05:43:24.524Z,98806.00
2023-05-08T05:44:26.308Z,98807.31
2023-05-08T05:45:28.126Z,98802.28
2023-05-08T05:46:32.767Z,98806.34
2023-05-08T05:47:34.857Z,98811.69
2023-05-08T05:48:36.495Z,98813.09
2023-05-08T05:49:39.991Z,98790.91
2023-05-08T05:50:41.571Z,98807.22
2023-05-08T05:51:43.172Z,98809.16
2023-05-08T05:52:44.790Z,98815.97
2023-05-08T05:53:46.814Z,98814.53
2023-05-08T05:54:48.401Z,98816.59
2023-05-08T05:55:49.925Z,98818.25
2023-05-08T05:56:51.480Z,98815.63
2023-05-08T05:57:53.048Z,98809.94
2023-05-08T05:58:54.680Z,98821.81
2023-05-08T05:59:56.719Z,98815.38
2023-05-08T06:01:01.012Z,98819.34
2023-05-08T06:02:03.200Z,98807.81
2023-05-08T06:03:05.665Z,98816.28
2023-05-08T06:04:07.806Z,98827.28
2023-05-08T06:05:10.344Z,98820.25
2023-05-08T06:06:14.919Z,98823.66
2023-05-08T06:07:21.327Z,98816.88
2023-05-08T06:08:23.089Z,98808.06
2023-05-08T06:09:24.879Z,98819.25
2023-05-08T06:10:27.866Z,98824.44
2023-05-08T06:11:29.531Z,98818.78
2023-05-08T06:12:32.006Z,98822.91
2023-05-08T06:13:33.737Z,98822.97
2023-05-08T06:14:35.486Z,98814.16
2023-05-08T06:15:37.123Z,98820.66
2023-05-08T06:16:38.950Z,98823.25
2023-05-08T06:17:41.139Z,98823.72
2023-05-08T06:18:42.661Z,98817.84
2023-05-08T06:19:44.633Z,98819.34
2023-05-08T06:20:46.270Z,98823.00
2023-05-08T06:21:47.806Z,98821.00
2023-05-08T06:22:49.426Z,98821.56
2023-05-08T06:23:51.338Z,98824.16
2023-05-08T06:24:57.280Z,98809.66
2023-05-08T06:25:59.236Z,98825.13
2023-05-08T06:27:00.883Z,98815.00
2023-05-08T06:28:04.043Z,98817.41
2023-05-08T06:29:06.008Z,98821.66
2023-05-08T06:30:08.556Z,98811.13
2023-05-08T06:31:10.727Z,98828.28
2023-05-08T06:32:12.494Z,98825.72
2023-05-08T06:33:14.063Z,98826.97
2023-05-08T06:34:15.779Z,98818.22
2023-05-08T06:35:20.294Z,98818.47
2023-05-08T06:36:22.035Z,98811.06
2023-05-08T06:37:23.838Z,98820.13
2023-05-08T06:38:28.717Z,98810.81
2023-05-08T06:39:33.380Z,98824.84
2023-05-08T06:40:35.017Z,98807.44
2023-05-08T06:41:37.051Z,98825.94
2023-05-08T06:42:38.584Z,98804.81
2023-05-08T06:43:40.582Z,98830.19
2023-05-08T06:44:42.186Z,98817.75
2023-05-08T06:45:43.939Z,98828.84
2023-05-08T06:46:45.509Z,98834.69
2023-05-08T06:47:47.151Z,98826.06
2023-05-08T06:48:49.066Z,98799.81
2023-05-08T06:49:50.678Z,98824.72
2023-05-08T06:50:52.300Z,98814.22
2023-05-08T06:51:55.396Z,98812.28
2023-05-08T06:52:58.190Z,98822.09
2023-05-08T06:53:59.787Z,98817.22
2023-05-08T06:55:01.369Z,98819.69
2023-05-08T06:56:02.931Z,98821.69
2023-05-08T06:57:04.479Z,98814.06
2023-05-08T06:58:06.132Z,98820.78
2023-05-08T06:59:09.052Z,98785.34
2023-05-08T07:00:11.702Z,98805.38
2023-05-08T07:01:13.455Z,98778.38
2023-05-08T07:02:16.396Z,98787.72
2023-05-08T07:03:18.352Z,98811.44
2023-05-08T07:04:19.984Z,98817.34
2023-05-08T07:05:21.809Z,98804.59
2023-05-08T07:06:23.568Z,98805.16
2023-05-08T07:07:25.103Z,98813.81
2023-05-08T07:08:27.362Z,98804.13
2023-05-08T07:09:28.929Z,98780.28
2023-05-08T07:10:30.501Z,98807.47
2023-05-08T07:11:32.154Z,98816.31
2023-05-08T07:12:33.692Z,98816.13
2023-05-08T07:13:35.268Z,98810.00
2023-05-08T07:14:37.460Z,98814.28
2023-05-08T07:15:39.661Z,98796.63
2023-05-08T07:16:41.881Z,98787.38
2023-05-08T07:17:43.824Z,98800.44
2023-05-08T07:18:45.865Z,98780.72
2023-05-08T07:19:50.597Z,98793.75
2023-05-08T07:20:52.537Z,98819.53
2023-05-08T07:21:54.131Z,98818.03
2023-05-08T07:22:55.896Z,98820.53
2023-05-08T07:23:57.809Z,98810.34
2023-05-08T07:24:59.511Z,98810.75
2023-05-08T07:26:01.430Z,98821.47
2023-05-08T07:27:03.180Z,98803.75
2023-05-08T07:28:04.910Z,98812.94
2023-05-08T07:29:07.543Z,98805.34
2023-05-08T07:30:09.569Z,98803.75
2023-05-08T07:31:11.332Z,98823.78
2023-05-08T07:32:13.337Z,98824.66
2023-05-08T07:33:18.150Z,98819.13
2023-05-08T07:34:19.941Z,98822.88
2023-05-08T07:35:21.526Z,98822.69
2023-05-08T07:36:23.683Z,98806.88
2023-05-08T07:37:25.800Z,98823.44
2023-05-08T07:38:27.361Z,98813.44
2023-05-08T07:39:28.929Z,98820.22
2023-05-08T07:40:30.478Z,98814.44
2023-05-08T07:41:33.623Z,98793.78
2023-05-08T07:42:41.413Z,98819.41
2023-05-08T07:43:45.511Z,98818.13
2023-05-08T07:44:54.291Z,98816.19
2023-05-08T07:45:57.195Z,98815.22
2023-05-08T07:46:58.935Z,98817.00
2023-05-08T07:48:00.610Z,98811.78
2023-05-08T07:49:02.399Z,98815.78
2023-05-08T07:50:04.368Z,98805.09
2023-05-08T07:51:06.007Z,98812.53
2023-05-08T07:52:08.067Z,98812.41
2023-05-08T07:53:09.617Z,98818.41
2023-05-08T07:54:12.021Z,98822.00
2023-05-08T07:55:13.867Z,98821.78
2023-05-08T07:56:15.740Z,98823.06
2023-05-08T07:57:17.332Z,98825.59
2023-05-08T07:58:19.563Z,98821.72
2023-05-08T07:59:21.251Z,98816.25
2023-05-08T08:00:23.021Z,98811.50
2023-05-08T08:01:24.591Z,98817.09
2023-05-08T08:02:26.289Z,98818.31
2023-05-08T08:03:30.648Z,98818.06
2023-05-08T08:04:32.312Z,98799.91
2023-05-08T08:05:33.874Z,98812.88
2023-05-08T08:06:35.813Z,98817.31
2023-05-08T08:07:40.495Z,98811.03
2023-05-08T08:08:42.165Z,98825.00
2023-05-08T08:09:43.890Z,98817.78
2023-05-08T08:10:45.455Z,98817.59
2023-05-08T08:11:47.267Z,98818.19
2023-05-08T08:12:49.177Z,98811.75
2023-05-08T08:13:50.895Z,98806.38
2023-05-08T08:14:52.504Z,98818.09
2023-05-08T08:15:54.095Z,98814.44
2023-05-08T08:16:55.701Z,98822.66
2023-05-08T08:17:57.636Z,98818.38
2023-05-08T08:18:59.613Z,98822.53
2023-05-08T08:20:01.304Z,98811.34
2023-05-08T08:21:06.838Z,98817.00
2023-05-08T08:22:08.631Z,98812.16
2023-05-08T08:23:10.298Z,98815.06
2023-05-08T08:24:11.831Z,98817.97
2023-05-08T08:25:13.534Z,98819.84
2023-05-08T08:26:15.405Z,98813.47
2023-05-08T08:27:16.918Z,98815.25
2023-05-08T08:28:18.816Z,98824.19
2023-05-08T08:29:20.770Z,98801.91
2023-05-08T08:30:22.446Z,98808.47
2023-05-08T08:31:26.884Z,98825.66
2023-05-08T08:32:28.530Z,98824.34
2023-05-08T08:33:30.661Z,98805.34
2023-05-08T08:34:35.559Z,98807.16
2023-05-08T08:35:38.172Z,98823.09
2023-05-08T08:36:39.923Z,98827.78
2023-05-08T08:37:41.453Z,98819.38
2023-05-08T08:38:43.316Z,98819.38
2023-05-08T08:39:44.890Z,98814.81
2023-05-08T08:40:46.677Z,98774.19
2023-05-08T08:41:48.349Z,98814.59
2023-05-08T08:42:50.504Z,98816.84
2023-05-08T08:43:52.089Z,98818.50
2023-05-08T08:44:54.212Z,98815.63
2023-05-08T08:45:56.108Z,98817.66
2023-05-08T08:46:58.809Z,98804.97
2023-05-08T08:48:02.303Z,98803.59
2023-05-08T08:49:04.332Z,98823.09
2023-05-08T08:50:07.248Z,98828.63
2023-05-08T08:51:08.879Z,98825.16
2023-05-08T08:52:28.868Z,98819.44
2023-05-08T08:53:34.317Z,98825.69
2023-05-08T08:54:36.290Z,98821.66
2023-05-08T08:55:40.349Z,98814.50
2023-05-08T08:56:43.224Z,98811.25
2023-05-08T08:57:46.010Z,98820.41
2023-05-08T08:58:54.606Z,98821.56
2023-05-08T08:59:56.177Z,98808.97
2023-05-08T09:00:58.899Z,98813.44
2023-05-08T09:02:02.326Z,98812.41
2023-05-08T09:03:06.447Z,98824.44
2023-05-08T09:04:08.955Z,98818.50
2023-05-08T09:05:11.607Z,98815.88
2023-05-08T09:06:14.193Z,98824.25
2023-05-08T09:07:16.775Z,98821.75
2023-05-08T09:08:18.810Z,98811.56
2023-05-08T09:09:20.458Z,98832.09
2023-05-08T09:10:23.288Z,98833.47
2023-05-08T09:11:25.946Z,98816.25
2023-05-08T09:12:27.789Z,98826.28
2023-05-08T09:13:30.062Z,98822.63
2023-05-08T09:14:31.770Z,98828.00
2023-05-08T09:15:33.716Z,98821.06
2023-05-08T09:16:35.576Z,98826.94
2023-05-08T09:17:38.453Z,98815.50
2023-05-08T09:18:39.870Z,98826.88
2023-05-08T09:19:41.488Z,98814.44
2023-05-08T09:20:43.461Z,98828.91
2023-05-08T09:21:45.156Z,98786.91
2023-05-08T09:22:47.227Z,98809.72
2023-05-08T09:23:58.749Z,98766.19
2023-05-08T09:25:00.941Z,98821.28
2023-05-08T09:26:03.220Z,98818.16
2023-05-08T09:27:05.578Z,98828.03
2023-05-08T09:28:23.404Z,98808.47
2023-05-08T09:29:24.937Z,98831.44
2023-05-08T09:30:26.789Z,98823.84
2023-05-08T09:31:35.400Z,98827.00
2023-05-08T09:32:41.001Z,98824.25
2023-05-08T09:33:44.357Z,98824.91
2023-05-08T09:34:46.407Z,98817.38
2023-05-08T09:35:51.232Z,98831.88
2023-05-08T09:36:52.796Z,98827.25
2023-05-08T09:37:56.153Z,98824.56
2023-05-08T09:38:58.930Z,98821.31
2023-05-08T09:40:14.024Z,98817.06
2023-05-08T09:41:16.444Z,98821.50
2023-05-08T09:42:18.328Z,98827.31
2023-05-08T09:43:20.179Z,98828.16
2023-05-08T09:44:21.825Z,98818.94
2023-05-08T09:45:31.441Z,98825.50
2023-05-08T09:46:36.584Z,98808.25
2023-05-08T09:47:39.917Z,98824.41
2023-05-08T09:48:41.514Z,98827.41
2023-05-08T09:49:57.134Z,98817.00
2023-05-08T09:51:07.690Z,98834.78
2023-05-08T09:52:09.663Z,98806.88
2023-05-08T09:53:11.761Z,98818.94
2023-05-08T09:54:17.674Z,98821.41
2023-05-08T09:55:19.515Z,98832.06
2023-05-08T09:56:34.193Z,98821.69
2023-05-08T09:57:38.459Z,98815.91
2023-05-08T09:58:41.345Z,98812.38
2023-05-08T09:59:43.107Z,98817.50
2023-05-08T10:00:44.786Z,98823.00
2023-05-08T10:01:46.578Z,98815.34
2023-05-08T10:02:58.778Z,98816.69
2023-05-08T10:04:01.551Z,98820.75
2023-05-08T10:05:31.779Z,98825.81
2023-05-08T10:06:34.598Z,98776.50
2023-05-08T10:07:38.878Z,98822.75
2023-05-08T10:08:40.649Z,98826.06
2023-05-08T10:09:57.651Z,98827.66
2023-05-08T10:11:16.247Z,98822.22
2023-05-08T10:12:18.205Z,98824.41
2023-05-08T10:13:20.740Z,98817.28
2023-05-08T10:14:23.082Z,98808.22
2023-05-08T10:15:33.637Z,98816.34
2023-05-08T10:16:40.240Z,98802.91
2023-05-08T10:17:47.219Z,98827.00
2023-05-08T10:18:50.398Z,98813.00
2023-05-08T10:19:52.723Z,98808.31
2023-05-08T10:20:54.449Z,98807.06
2023-05-08T10:21:59.268Z,98826.06
2023-05-08T10:23:04.021Z,98828.25
2023-05-08T10:24:06.499Z,98826.03
2023-05-08T10:25:10.955Z,98817.84
2023-05-08T10:26:17.680Z,98815.66
2023-05-08T10:27:39.118Z,98816.91
2023-05-08T10:28:43.387Z,98816.84
2023-05-08T10:29:53.075Z,98824.59
2023-05-08T10:30:58.061Z,98811.53
2023-05-08T10:32:00.482Z,98817.22
2023-05-08T10:33:03.325Z,98821.41
2023-05-08T10:34:05.112Z,98822.16
2023-05-08T10:35:09.823Z,98823.31
2023-05-08T10:36:13.481Z,98823.31
2023-05-08T10:37:15.047Z,98812.63
2023-05-08T10:38:17.275Z,98823.50
2023-05-08T10:39:18.871Z,98811.16
2023-05-08T10:40:21.440Z,98804.53
2023-05-08T10:41:23.294Z,98764.84
2023-05-08T10:42:25.293Z,98823.13
2023-05-08T10:43:30.230Z,98815.44
2023-05-08T10:44:31.934Z,98811.66
2023-05-08T10:45:33.967Z,98784.78
2023-05-08T10:46:49.677Z,98825.56
2023-05-08T10:48:03.997Z,98820.16
2023-05-08T10:49:35.145Z,98818.41
2023-05-08T10:51:10.791Z,98818.09
2023-05-08T10:52:34.142Z,98809.34
2023-05-08T10:54:09.177Z,98809.78
2023-05-08T10:55:52.591Z,98813.53
2023-05-08T10:56:54.335Z,98817.03
2023-05-08T10:58:06.451Z,98820.38
2023-05-08T10:59:08.544Z,98811.28
2023-05-08T11:00:10.545Z,98812.09
2023-05-08T11:01:13.070Z,98816.41
2023-05-08T11:02:15.938Z,98821.97
2023-05-08T11:03:30.718Z,98814.00
2023-05-08T11:04:35.176Z,98805.22
2023-05-08T11:05:46.947Z,98814.66
2023-05-08T11:06:50.798Z,98800.13
2023-05-08T11:07:59.410Z,98810.78
2023-05-08T11:09:01.326Z,98812.38
2023-05-08T11:10:15.403Z,98793.50
2023-05-08T11:11:36.350Z,98798.53
2023-05-08T11:12:38.291Z,98803.00
2023-05-08T11:13:51.047Z,98800.47
2023-05-08T11:15:12.948Z,98807.13
2023-05-08T11:16:14.576Z,98804.28
2023-05-08T11:17:23.066Z,98806.16
2023-05-08T11:18:26.452Z,98801.13
2023-05-08T11:19:30.150Z,98795.53
2023-05-08T11:20:41.943Z,98802.66
2023-05-08T11:22:11.810Z,98800.09
2023-05-08T11:23:28.636Z,98791.03
2023-05-08T11:24:36.544Z,98795.63
2023-05-08T11:25:44.640Z,98799.69
2023-05-08T11:26:48.721Z,98780.22
2023-05-08T11:27:50.628Z,98800.28
2023-05-08T11:28:58.592Z,98788.72
2023-05-08T11:30:41.539Z,98806.03
2023-05-08T11:31:49.613Z,98791.53
2023-05-08T11:32:58.425Z,98811.25
2023-05-08T11:34:03.326Z,98793.44
2023-05-08T11:35:11.183Z,98794.09
2023-05-08T11:36:14.110Z,98773.03
2023-05-08T11:37:24.305Z,98793.75
2023-05-08T11:38:34.144Z,98793.50
2023-05-08T11:39:35.774Z,98802.06
2023-05-08T11:40:56.561Z,98794.00
2023-05-08T11:42:27.903Z,98798.53
2023-05-08T11:43:46.864Z,98794.31
2023-05-08T11:44:48.540Z,98781.63
2023-05-08T11:45:50.246Z,98776.22
2023-05-08T11:46:55.440Z,98775.78
2023-05-08T11:48:00.957Z,98779.53
2023-05-08T11:49:03.108Z,98789.56
2023-05-08T11:50:11.352Z,98792.53
2023-05-08T11:51:16.981Z,98784.31
2023-05-08T11:52:18.511Z,98776.06
2023-05-08T11:53:20.494Z,98793.16
2023-05-08T11:54:23.125Z,98790.28
2023-05-08T11:55:24.869Z,98783.25
2023-05-08T11:56:26.672Z,98781.56
2023-05-08T11:57:28.178Z,98788.63
2023-05-08T11:58:29.864Z,98787.75
2023-05-08T11:59:35.976Z,98796.38
2023-05-08T12:00:48.913Z,98794.81
2023-05-08T12:02:06.777Z,98781.56
2023-05-08T12:03:09.554Z,98793.50
2023-05-08T12:04:12.773Z,98785.75
2023-05-08T12:05:14.699Z,98796.06
2023-05-08T12:06:16.308Z,98797.09
2023-05-08T12:07:21.475Z,98791.03
2023-05-08T12:08:23.013Z,98796.16
2023-05-08T12:09:27.834Z,98804.47
2023-05-08T12:10:29.448Z,98792.28
2023-05-08T12:11:31.790Z,98791.16
2023-05-08T12:12:51.562Z,98797.22
2023-05-08T12:13:57.550Z,98780.44
2023-05-08T12:14:59.070Z,98796.84
2023-05-08T12:16:01.006Z,98802.13
2023-05-08T12:17:02.997Z,98798.97
2023-05-08T12:18:08.135Z,98810.56
2023-05-08T12:19:10.870Z,98795.94
2023-05-08T12:20:14.268Z,98801.38
2023-05-08T12:21:16.298Z,98798.31
2023-05-08T12:22:17.843Z,98794.69
2023-05-08T12:23:19.749Z,98791.75
2023-05-08T12:24:24.443Z,98797.56
2023-05-08T12:25:26.680Z,98773.63
2023-05-08T12:26:30.157Z,98798.94
2023-05-08T12:27:32.842Z,98802.13
2023-05-08T12:28:35.089Z,98777.13
2023-05-08T12:29:37.672Z,98739.13
2023-05-08T12:30:39.213Z,98798.16
2023-05-08T12:31:41.277Z,98793.53
2023-05-08T12:32:46.336Z,98802.03
2023-05-08T12:33:49.158Z,98801.28
2023-05-08T12:34:50.770Z,98797.72
2023-05-08T12:35:52.516Z,98783.47
2023-05-08T12:37:04.183Z,98795.16
2023-05-08T12:38:07.736Z,98777.59